createdAt,value
2019-03-18T00:02:47.515Z,3.47
2019-03-18T00:07:46.514Z,3.44
2019-03-18T00:12:46.592Z,3.38
2019-03-18T00:17:46.510Z,3.37
2019-03-18T00:22:45.738Z,3.37
2019-03-18T00:27:46.507Z,3.35
2019-03-18T00:32:45.856Z,3.38
2019-03-18T00:37:45.478Z,3.36
2019-03-18T00:42:45.479Z,3.33
2019-03-18T00:47:45.497Z,3.34
2019-03-18T00:52:45.530Z,3.34
2019-03-18T00:57:46.590Z,3.30
2019-03-18T01:02:45.525Z,3.27
2019-03-18T01:07:44.856Z,3.23
2019-03-18T01:12:44.450Z,3.19
2019-03-18T01:17:43.740Z,3.24
2019-03-18T01:22:42.875Z,3.29
2019-03-18T01:27:42.567Z,3.26
2019-03-18T01:32:41.721Z,3.21
2019-03-18T01:37:41.556Z,3.22
2019-03-18T01:42:41.517Z,3.30
2019-03-18T01:47:41.636Z,3.32
2019-03-18T01:52:43.387Z,3.34
2019-03-18T01:57:41.517Z,3.40
2019-03-18T02:02:41.564Z,3.44
2019-03-18T02:07:41.548Z,3.48
2019-03-18T02:12:41.624Z,3.46
2019-03-18T02:17:42.545Z,3.49
2019-03-18T02:22:42.693Z,3.53
2019-03-18T02:27:42.566Z,3.56
2019-03-18T02:32:42.557Z,3.57
2019-03-18T02:37:41.727Z,3.66
2019-03-18T02:42:41.552Z,3.70
2019-03-18T02:47:41.664Z,3.78
2019-03-18T02:52:42.787Z,3.80
2019-03-18T02:57:42.564Z,3.85
2019-03-18T03:02:41.860Z,3.88
2019-03-18T03:07:41.799Z,3.89
2019-03-18T03:12:41.675Z,3.90
2019-03-18T03:17:40.796Z,3.90
2019-03-18T03:22:40.562Z,3.91
2019-03-18T03:27:40.631Z,3.85
2019-03-18T03:32:39.747Z,3.72
2019-03-18T03:37:38.715Z,3.61
2019-03-18T03:42:37.618Z,3.61
2019-03-18T03:47:37.046Z,3.59
2019-03-18T03:52:35.961Z,3.52
2019-03-18T03:57:34.974Z,3.46
2019-03-18T04:02:34.717Z,3.42
2019-03-18T04:07:33.622Z,3.41
2019-03-18T04:12:32.662Z,3.39
2019-03-18T04:17:32.831Z,3.36
2019-03-18T04:22:32.633Z,3.36
2019-03-18T04:27:32.625Z,3.34
2019-03-18T04:32:32.687Z,3.36
2019-03-18T04:37:31.570Z,3.38
2019-03-18T04:42:31.628Z,3.36
2019-03-18T04:47:30.885Z,3.39
2019-03-18T04:52:30.709Z,3.40
2019-03-18T04:57:30.631Z,3.45
2019-03-18T05:02:30.738Z,3.50
2019-03-18T05:07:30.652Z,3.53
2019-03-18T05:12:29.743Z,3.57
2019-03-18T05:17:29.658Z,3.60
2019-03-18T05:22:28.705Z,3.62
2019-03-18T05:27:27.852Z,3.63
2019-03-18T05:32:27.643Z,3.63
2019-03-18T05:44:52.935Z,3.67
2019-03-18T05:52:27.696Z,3.79
2019-03-18T05:57:27.743Z,3.79
2019-03-18T06:02:27.777Z,3.81
2019-03-18T06:07:27.058Z,3.79
2019-03-18T06:12:26.712Z,3.79
2019-03-18T06:17:26.697Z,3.75
2019-03-18T06:22:25.881Z,3.68
2019-03-18T06:27:25.668Z,3.63
2019-03-18T06:32:24.724Z,3.66
2019-03-18T06:37:24.725Z,3.71
2019-03-18T06:42:24.725Z,3.75
2019-03-18T06:47:24.755Z,3.86
2019-03-18T06:52:24.741Z,3.98
2019-03-18T06:57:24.716Z,4.00
2019-03-18T07:02:24.720Z,4.03
2019-03-18T07:07:25.738Z,4.07
2019-03-18T07:12:24.960Z,4.17
2019-03-18T07:17:23.827Z,4.28
2019-03-18T07:22:23.698Z,4.44
2019-03-18T07:27:22.881Z,4.43
2019-03-18T07:32:22.777Z,4.54
2019-03-18T07:37:21.846Z,4.64
2019-03-18T07:42:20.780Z,4.67
2019-03-18T07:47:21.701Z,4.76
2019-03-18T07:52:22.020Z,4.97
2019-03-18T07:57:20.811Z,5.11
2019-03-18T08:02:20.786Z,5.02
2019-03-18T08:07:19.777Z,4.84
2019-03-18T08:12:19.748Z,4.93
2019-03-18T08:17:19.743Z,5.08
2019-03-18T08:22:19.768Z,5.29
2019-03-18T08:27:18.873Z,5.40
2019-03-18T08:32:18.095Z,5.33
2019-03-18T08:37:17.036Z,5.32
2019-03-18T08:42:16.740Z,5.42
2019-03-18T08:47:16.870Z,5.45
2019-03-18T08:52:15.751Z,5.44
2019-03-18T08:57:14.788Z,5.59
2019-03-18T09:02:13.864Z,5.67
2019-03-18T09:07:13.802Z,5.63
2019-03-18T09:12:13.754Z,5.68
2019-03-18T09:17:14.775Z,5.68
2019-03-18T09:22:14.822Z,5.81
2019-03-18T09:27:14.807Z,6.09
2019-03-18T09:32:14.802Z,6.36
2019-03-18T09:37:14.828Z,6.59
2019-03-18T09:42:13.834Z,6.76
2019-03-18T09:47:13.778Z,6.81
2019-03-18T09:52:13.786Z,6.69
2019-03-18T09:57:25.133Z,6.64
2019-03-18T10:02:11.787Z,6.75
2019-03-18T10:07:11.817Z,6.97
2019-03-18T10:12:11.813Z,7.03
2019-03-18T10:17:11.100Z,7.01
2019-03-18T10:22:11.817Z,6.96
2019-03-18T10:27:10.911Z,7.01
2019-03-18T10:32:11.804Z,7.49
2019-03-18T10:37:10.839Z,7.84
2019-03-18T10:42:10.135Z,8.14
2019-03-18T10:47:09.856Z,8.23
2019-03-18T10:52:08.877Z,8.14
2019-03-18T10:57:08.906Z,8.00
2019-03-18T11:02:09.895Z,7.68
2019-03-18T11:07:09.831Z,7.53
2019-03-18T11:12:09.097Z,7.36
2019-03-18T11:22:07.814Z,7.37
2019-03-18T11:27:07.881Z,7.63
2019-03-18T11:32:07.930Z,8.22
2019-03-18T11:37:07.846Z,8.51
2019-03-18T11:42:07.082Z,8.56
2019-03-18T11:47:07.836Z,8.43
2019-03-18T11:52:06.844Z,8.12
2019-03-18T11:57:06.887Z,7.79
2019-03-18T12:02:06.134Z,7.45
2019-03-18T12:07:05.833Z,6.84
2019-03-18T12:12:06.846Z,6.47
2019-03-18T12:17:05.867Z,6.05
2019-03-18T12:22:05.871Z,6.26
2019-03-18T12:27:05.887Z,6.50
2019-03-18T12:32:05.141Z,6.79
2019-03-18T12:37:05.052Z,7.05
2019-03-18T12:42:05.921Z,7.38
2019-03-18T12:47:05.854Z,7.70
2019-03-18T12:52:05.912Z,7.67
2019-03-18T12:57:04.869Z,7.57
2019-03-18T13:02:05.051Z,7.66
2019-03-18T13:07:04.866Z,7.99
2019-03-18T13:12:05.924Z,8.35
2019-03-18T13:17:04.828Z,8.87
2019-03-18T13:22:04.890Z,9.01
2019-03-18T13:27:04.318Z,8.97
2019-03-18T13:32:05.142Z,8.97
2019-03-18T13:42:04.990Z,8.71
2019-03-18T13:47:04.315Z,8.82
2019-03-18T13:52:04.898Z,8.81
2019-03-18T13:57:03.958Z,8.56
2019-03-18T14:02:03.876Z,8.49
2019-03-18T14:07:05.065Z,8.59
2019-03-18T14:12:04.927Z,8.56
2019-03-18T14:17:04.883Z,8.56
2019-03-18T14:22:03.914Z,8.76
2019-03-18T14:27:04.010Z,8.94
2019-03-18T14:32:04.876Z,9.12
2019-03-18T14:37:04.197Z,9.38
2019-03-18T14:42:03.934Z,9.40
2019-03-18T14:47:04.905Z,9.57
2019-03-18T14:52:04.944Z,9.69
2019-03-18T14:57:04.915Z,9.41
2019-03-18T15:02:04.238Z,9.19
2019-03-18T15:12:02.930Z,8.83
2019-03-18T15:17:01.857Z,8.57
2019-03-18T15:22:01.288Z,8.04
2019-03-18T15:27:01.163Z,7.86
2019-03-18T15:32:01.415Z,7.66
2019-03-18T15:37:00.873Z,7.54
2019-03-18T15:42:01.195Z,7.49
2019-03-18T15:52:10.447Z,7.50
2019-03-18T15:57:01.272Z,7.50
2019-03-18T16:02:01.064Z,7.46
2019-03-18T16:11:58.987Z,7.38
2019-03-18T16:17:02.244Z,7.38
2019-03-18T16:21:57.037Z,7.36
2019-03-18T16:26:55.892Z,7.37
2019-03-18T16:31:55.080Z,7.43
2019-03-18T16:36:55.915Z,7.44
2019-03-18T16:41:55.687Z,7.39
2019-03-18T16:46:54.883Z,7.27
2019-03-18T16:51:54.128Z,7.13
2019-03-18T16:56:54.205Z,7.05
2019-03-18T17:01:52.988Z,7.01
2019-03-18T17:11:52.164Z,6.85
2019-03-18T17:16:51.927Z,6.76
2019-03-18T17:21:51.018Z,6.68
2019-03-18T17:26:51.300Z,6.57
2019-03-18T17:31:51.059Z,6.46
2019-03-18T17:36:51.629Z,6.38
2019-03-18T17:41:51.260Z,6.33
2019-03-18T17:46:50.195Z,6.25
2019-03-18T17:51:51.208Z,6.21
2019-03-18T17:56:49.968Z,6.19
2019-03-18T18:01:50.047Z,6.17
2019-03-18T18:06:48.959Z,6.15
2019-03-18T18:11:48.099Z,6.16
2019-03-18T18:16:46.984Z,6.11
2019-03-18T18:21:46.984Z,6.05
2019-03-18T18:26:47.028Z,5.98
2019-03-18T18:31:46.215Z,5.89
2019-03-18T18:36:45.252Z,5.88
2019-03-18T18:41:44.961Z,5.82
2019-03-18T18:46:43.996Z,5.73
2019-03-18T18:51:43.138Z,5.58
2019-03-18T18:56:44.049Z,5.45
2019-03-18T19:01:43.973Z,5.33
2019-03-18T19:06:45.020Z,5.30
2019-03-18T19:11:43.990Z,5.20
2019-03-18T19:26:43.098Z,5.11
2019-03-18T19:31:41.965Z,5.10
2019-03-18T19:36:41.299Z,5.14
2019-03-18T19:41:40.334Z,5.16
2019-03-18T19:46:40.041Z,5.21
2019-03-18T19:51:41.033Z,5.21
2019-03-18T19:56:41.038Z,5.20
2019-03-18T20:01:41.075Z,5.18
2019-03-18T20:06:40.066Z,5.16
2019-03-18T20:11:40.041Z,5.15
2019-03-18T20:16:40.382Z,5.07
2019-03-18T20:21:41.061Z,4.90
2019-03-18T20:26:40.246Z,4.64
2019-03-18T20:31:40.347Z,4.42
2019-03-18T20:36:40.521Z,4.34
2019-03-18T20:41:40.015Z,4.38
2019-03-18T20:46:40.088Z,4.47
2019-03-18T20:51:39.297Z,4.52
2019-03-18T20:56:38.546Z,4.55
2019-03-18T21:01:38.116Z,4.55
2019-03-18T21:06:38.067Z,4.53
2019-03-18T21:11:38.339Z,4.49
2019-03-18T21:16:38.128Z,4.46
2019-03-18T21:21:38.052Z,4.46
2019-03-18T21:26:37.174Z,4.45
2019-03-18T21:31:37.077Z,4.44
2019-03-18T21:36:38.583Z,4.43
2019-03-18T21:41:38.038Z,4.44
2019-03-18T21:46:37.521Z,4.38
2019-03-18T21:51:38.379Z,4.31
2019-03-18T21:56:37.190Z,4.16
2019-03-18T22:01:36.089Z,4.00
2019-03-18T22:06:35.044Z,3.84
2019-03-18T22:11:35.062Z,3.58
2019-03-18T22:16:34.006Z,3.36
2019-03-18T22:21:33.649Z,3.28
2019-03-18T22:26:34.199Z,3.09
2019-03-18T22:31:35.493Z,2.94
2019-03-18T22:36:35.215Z,2.82
2019-03-18T22:41:34.509Z,2.67
2019-03-18T22:46:34.251Z,2.51
2019-03-18T22:51:34.126Z,2.35
2019-03-18T22:56:33.068Z,2.26
2019-03-18T23:01:33.143Z,2.17
2019-03-18T23:06:32.493Z,2.04
2019-03-18T23:11:31.323Z,1.89
2019-03-18T23:16:30.522Z,1.82
2019-03-18T23:21:29.340Z,1.83
2019-03-18T23:26:29.139Z,1.95
2019-03-18T23:31:29.223Z,2.11
2019-03-18T23:36:28.158Z,2.23
2019-03-18T23:41:27.094Z,2.26
2019-03-18T23:46:27.172Z,2.30
2019-03-18T23:51:26.480Z,2.31
2019-03-18T23:56:26.114Z,2.21
